Time;durP1;ratioP1;P1;durP2;ratioP2;P2;SDS_P1;SDS_P2;PMS_P1;PMS_P2;Temp;Humidity;BMP_temperature;BMP_pressure;BME280_temperature;BME280_humidity;BME280_pressure;Samples;Min_cycle;Max_cycle;Signal;HPM_P1;HPM_P2
2023/04/10 00:00:20;;;;;;;;;;;;;;;10.72;nan;102715.59;5002364;28;19983;-81
2023/04/10 00:02:47;;;;;;;;;;;;;;;10.68;nan;102708.19;5004625;28;20326;-81
2023/04/10 00:05:12;;;;;;;;;;;;;;;10.67;nan;102706.53;5001654;28;19925;-81
2023/04/10 00:07:38;;;;;;;;;;;;;;;10.67;nan;102706.53;4996769;28;19921;-81
2023/04/10 00:10:03;;;;;;;;;;;;;;;10.69;nan;102701.78;5003401;28;19976;-81
2023/04/10 00:12:28;;;;;;;;;;;;;;;10.70;nan;102700.75;4999305;28;19925;-80
2023/04/10 00:14:54;;;;;;;;;;;;;;;10.64;nan;102706.94;5004960;28;19921;-80
2023/04/10 00:17:19;;;;;;;;;;;;;;;10.60;nan;102703.84;4981232;28;20013;-80
2023/04/10 00:19:45;;;;;;;;;;;;;;;10.55;nan;102696.38;5002206;28;19921;-81
2023/04/10 00:22:10;;;;;;;;;;;;;;;10.51;nan;102703.16;5004028;28;19921;-80
2023/04/10 00:24:36;;;;;;;;;;;;;;;10.44;nan;102699.63;5010542;28;19953;-81
2023/04/10 00:27:01;;;;;;;;;;;;;;;10.39;nan;102696.72;5002979;28;20067;-81
2023/04/10 00:29:26;;;;;;;;;;;;;;;10.34;nan;102695.66;5001999;28;19917;-81
2023/04/10 00:31:52;;;;;;;;;;;;;;;10.27;nan;102691.09;4996091;28;20538;-80
2023/04/10 00:34:17;;;;;;;;;;;;;;;10.22;nan;102690.84;5006929;28;20405;-81
2023/04/10 00:36:44;;;;;;;;;;;;;;;10.18;nan;102686.88;5006439;28;19959;-81
2023/04/10 00:39:09;;;;;;;;;;;;;;;10.16;nan;102688.13;4991274;28;19928;-80
2023/04/10 00:41:34;;;;;;;;;;;;;;;10.14;nan;102690.16;4992248;28;19970;-80
2023/04/10 00:44:00;;;;;;;;;;;;;;;10.12;nan;102686.88;4991272;28;19926;-80
2023/04/10 00:46:26;;;;;;;;;;;;;;;10.09;nan;102692.63;4995248;28;19917;-81
2023/04/10 00:48:53;;;;;;;;;;;;;;;10.04;nan;102687.00;4991742;28;19926;-80
2023/04/10 00:51:22;;;;;;;;;;;;;;;10.02;nan;102684.53;4997094;28;19921;-81
2023/04/10 00:53:50;;;;;;;;;;;;;;;10.01;nan;102680.19;4973833;28;19921;-80
2023/04/10 00:56:18;;;;;;;;;;;;;;;9.98;nan;102680.59;5003267;28;20363;-80
2023/04/10 00:58:44;;;;;;;;;;;;;;;9.92;nan;102682.22;4978493;28;20020;-80
2023/04/10 01:01:10;;;;;;;;;;;;;;;9.89;nan;102679.94;5003025;28;20257;-80
2023/04/10 01:03:37;;;;;;;;;;;;;;;9.87;nan;102663.22;5005773;28;19930;-80
2023/04/10 01:06:07;;;;;;;;;;;;;;;9.83;nan;102667.31;4998951;28;19944;-80
2023/04/10 01:08:46;;;;;;;;;;;;;;;9.80;nan;102670.41;5006872;28;19917;-81
2023/04/10 01:11:26;;;;;;;;;;;;;;;9.75;nan;102667.50;4999119;28;19921;-80
2023/04/10 01:13:51;;;;;;;;;;;;;;;9.70;nan;102667.25;5003490;28;19946;-80
2023/04/10 01:16:19;;;;;;;;;;;;;;;9.64;nan;102668.84;4999901;28;19917;-80
2023/04/10 01:18:45;;;;;;;;;;;;;;;9.60;nan;102670.25;5001922;28;20019;-80
2023/04/10 01:21:13;;;;;;;;;;;;;;;9.57;nan;102672.50;5002267;28;20344;-80
2023/04/10 01:23:45;;;;;;;;;;;;;;;9.54;nan;102672.91;5004368;28;19936;-80
2023/04/10 01:26:12;;;;;;;;;;;;;;;9.48;nan;102668.31;5003351;28;19918;-80
2023/04/10 01:28:54;;;;;;;;;;;;;;;9.47;nan;102677.34;4998100;28;19928;-81
2023/04/10 01:31:24;;;;;;;;;;;;;;;9.46;nan;102678.38;4998614;28;20382;-80
2023/04/10 01:33:52;;;;;;;;;;;;;;;9.46;nan;102676.53;5003054;28;19917;-81
2023/04/10 01:36:23;;;;;;;;;;;;;;;9.47;nan;102677.34;5001996;28;19922;-80
2023/04/10 01:38:50;;;;;;;;;;;;;;;9.43;nan;102676.09;4996027;28;20353;-80
2023/04/10 01:41:17;;;;;;;;;;;;;;;9.41;nan;102673.59;4997944;28;19956;-80
2023/04/10 01:43:45;;;;;;;;;;;;;;;9.39;nan;102675.66;5002088;28;19922;-80
2023/04/10 01:46:11;;;;;;;;;;;;;;;9.36;nan;102681.41;5000992;28;20012;-80
2023/04/10 01:48:36;;;;;;;;;;;;;;;9.31;nan;102676.59;4998893;28;20012;-80
2023/04/10 01:51:03;;;;;;;;;;;;;;;9.27;nan;102679.84;4996734;28;20024;-80
2023/04/10 01:53:30;;;;;;;;;;;;;;;9.21;nan;102670.75;5008429;28;20365;-80
2023/04/10 01:55:56;;;;;;;;;;;;;;;9.18;nan;102668.47;5007681;28;19917;-80
2023/04/10 01:58:21;;;;;;;;;;;;;;;9.16;nan;102667.84;5005138;28;19917;-80
2023/04/10 02:00:47;;;;;;;;;;;;;;;9.12;nan;102663.06;5000080;28;19926;-80
2023/04/10 02:03:12;;;;;;;;;;;;;;;9.08;nan;102662.59;5002472;28;19918;-80
2023/04/10 02:06:01;;;;;;;;;;;;;;;9.05;nan;102660.31;5003098;28;19983;-80
2023/04/10 02:08:35;;;;;;;;;;;;;;;9.00;nan;102666.25;4983442;28;19917;-80
2023/04/10 02:11:23;;;;;;;;;;;;;;;8.97;nan;102657.75;4998169;28;19977;-80
2023/04/10 02:13:50;;;;;;;;;;;;;;;8.97;nan;102660.44;5000086;28;19956;-80
2023/04/10 02:16:18;;;;;;;;;;;;;;;8.95;nan;102660.63;5004474;28;20285;-80
2023/04/10 02:18:45;;;;;;;;;;;;;;;8.92;nan;102661.00;5000948;28;19971;-80
2023/04/10 02:21:10;;;;;;;;;;;;;;;8.90;nan;102655.03;5002206;28;20173;-80
2023/04/10 02:23:36;;;;;;;;;;;;;;;8.89;nan;102655.22;4985751;28;20016;-80
2023/04/10 02:26:07;;;;;;;;;;;;;;;8.88;nan;102657.06;5007890;28;19953;-80
2023/04/10 02:28:33;;;;;;;;;;;;;;;8.85;nan;102661.97;5006157;28;19987;-80
2023/04/10 02:30:58;;;;;;;;;;;;;;;8.81;nan;102660.72;5007587;28;19929;-80
2023/04/10 02:33:24;;;;;;;;;;;;;;;8.77;nan;102661.06;5006336;28;19965;-80
2023/04/10 02:35:49;;;;;;;;;;;;;;;8.72;nan;102658.13;4987133;28;19921;-80
2023/04/10 02:38:14;;;;;;;;;;;;;;;8.68;nan;102661.38;5006974;28;19917;-80
2023/04/10 02:40:40;;;;;;;;;;;;;;;8.64;nan;102666.28;5005963;28;20004;-80
2023/04/10 02:43:05;;;;;;;;;;;;;;;8.64;nan;102660.94;5004790;28;19917;-80
2023/04/10 02:45:32;;;;;;;;;;;;;;;8.62;nan;102665.66;5001812;28;19917;-80
2023/04/10 02:47:57;;;;;;;;;;;;;;;8.62;nan;102662.97;4986967;28;19937;-80
2023/04/10 02:50:22;;;;;;;;;;;;;;;8.58;nan;102667.00;5003232;28;19922;-80
2023/04/10 02:52:48;;;;;;;;;;;;;;;8.54;nan;102664.91;5003541;28;19929;-80
2023/04/10 02:55:13;;;;;;;;;;;;;;;8.47;nan;102659.50;5002355;28;20028;-80
2023/04/10 02:57:39;;;;;;;;;;;;;;;8.43;nan;102663.53;5001387;28;19926;-80
2023/04/10 03:00:05;;;;;;;;;;;;;;;8.43;nan;102668.88;5003941;28;20427;-80
2023/04/10 03:02:31;;;;;;;;;;;;;;;8.42;nan;102661.88;4988757;28;20015;-80
2023/04/10 03:04:56;;;;;;;;;;;;;;;8.40;nan;102679.94;5001365;28;19917;-80
2023/04/10 03:07:22;;;;;;;;;;;;;;;8.36;nan;102678.66;4999892;28;19918;-80
2023/04/10 03:09:47;;;;;;;;;;;;;;;8.36;nan;102678.66;5000509;28;19917;-80
2023/04/10 03:12:12;;;;;;;;;;;;;;;8.33;nan;102684.34;5001876;28;20034;-80
2023/04/10 03:14:39;;;;;;;;;;;;;;;8.30;nan;102684.72;5005398;28;19917;-80
2023/04/10 03:17:04;;;;;;;;;;;;;;;8.28;nan;102676.06;5000718;28;19999;-80
2023/04/10 03:19:30;;;;;;;;;;;;;;;8.27;nan;102679.75;4982859;28;19925;-80
2023/04/10 03:21:55;;;;;;;;;;;;;;;8.26;nan;102676.25;5003753;28;19963;-80
2023/04/10 03:24:21;;;;;;;;;;;;;;;8.22;nan;102676.78;5006373;28;19917;-80
2023/04/10 03:26:46;;;;;;;;;;;;;;;8.17;nan;102677.38;5008198;28;19921;-80
2023/04/10 03:29:14;;;;;;;;;;;;;;;8.14;nan;102678.56;4985624;28;19928;-80
2023/04/10 03:31:39;;;;;;;;;;;;;;;8.14;nan;102665.22;5006672;28;20292;-80
2023/04/10 03:34:05;;;;;;;;;;;;;;;8.14;nan;102662.53;5007735;28;19917;-80
2023/04/10 03:36:31;;;;;;;;;;;;;;;8.14;nan;102670.56;5002968;28;20067;-80
2023/04/10 03:38:56;;;;;;;;;;;;;;;8.14;nan;102667.06;5001692;28;19976;-79
2023/04/10 03:41:23;;;;;;;;;;;;;;;8.14;nan;102672.41;4998029;28;20595;-80
2023/04/10 03:43:49;;;;;;;;;;;;;;;8.11;nan;102668.25;5004750;28;19918;-80
2023/04/10 03:46:14;;;;;;;;;;;;;;;8.09;nan;102664.13;5003892;28;19917;-80
2023/04/10 03:48:40;;;;;;;;;;;;;;;8.07;nan;102664.28;5005173;28;20022;-80
2023/04/10 03:51:05;;;;;;;;;;;;;;;8.06;nan;102667.13;5004488;28;20330;-80
2023/04/10 03:53:34;;;;;;;;;;;;;;;8.03;nan;102671.00;5000900;28;19932;-80
2023/04/10 03:56:00;;;;;;;;;;;;;;;8.01;nan;102670.38;5007211;28;20350;-80
2023/04/10 03:58:25;;;;;;;;;;;;;;;8.00;nan;102671.38;5000114;28;20076;-80
2023/04/10 04:00:50;;;;;;;;;;;;;;;7.97;nan;102674.41;4980347;28;20299;-80
2023/04/10 04:03:16;;;;;;;;;;;;;;;7.96;nan;102670.09;5002694;28;19921;-80
2023/04/10 04:05:41;;;;;;;;;;;;;;;7.92;nan;102668.81;4999430;28;19921;-80
2023/04/10 04:08:06;;;;;;;;;;;;;;;7.87;nan;102669.34;5000220;28;19924;-79
2023/04/10 04:10:32;;;;;;;;;;;;;;;7.86;nan;102672.19;5002597;28;20306;-79
2023/04/10 04:12:57;;;;;;;;;;;;;;;7.83;nan;102678.72;4999181;28;19929;-80
2023/04/10 04:15:23;;;;;;;;;;;;;;;7.81;nan;102680.75;5003530;28;19921;-80
2023/04/10 04:17:49;;;;;;;;;;;;;;;7.79;nan;102671.28;5006098;28;19925;-80
2023/04/10 04:20:14;;;;;;;;;;;;;;;7.77;nan;102681.31;4999174;28;19922;-80
2023/04/10 04:22:40;;;;;;;;;;;;;;;7.75;nan;102680.66;5005167;28;19921;-80
2023/04/10 04:25:09;;;;;;;;;;;;;;;7.75;nan;102678.81;5003348;28;19918;-80
2023/04/10 04:27:35;;;;;;;;;;;;;;;7.73;nan;102680.03;5000381;28;20364;-80
2023/04/10 04:30:01;;;;;;;;;;;;;;;7.71;nan;102674.00;4999684;28;19979;-80
2023/04/10 04:32:26;;;;;;;;;;;;;;;7.70;nan;102672.34;5003851;28;19925;-79
2023/04/10 04:34:52;;;;;;;;;;;;;;;7.69;nan;102684.88;4984745;28;19921;-79
2023/04/10 04:37:17;;;;;;;;;;;;;;;7.69;nan;102676.03;5000459;28;19929;-80
2023/04/10 04:39:42;;;;;;;;;;;;;;;7.71;nan;102684.69;4999253;28;19925;-79
2023/04/10 04:42:08;;;;;;;;;;;;;;;7.70;nan;102691.03;4986105;28;20372;-80
2023/04/10 04:44:33;;;;;;;;;;;;;;;7.69;nan;102692.03;5001917;28;20403;-80
2023/04/10 04:46:59;;;;;;;;;;;;;;;7.69;nan;102689.38;4999166;28;19926;-80
2023/04/10 04:49:25;;;;;;;;;;;;;;;7.68;nan;102685.88;4998289;28;19972;-80
2023/04/10 04:51:50;;;;;;;;;;;;;;;7.71;nan;102692.69;4997645;28;19925;-80
2023/04/10 04:54:15;;;;;;;;;;;;;;;7.73;nan;102688.84;5001102;28;19917;-80
2023/04/10 04:56:41;;;;;;;;;;;;;;;7.76;nan;102682.31;5000180;28;19921;-80
2023/04/10 04:59:07;;;;;;;;;;;;;;;7.76;nan;102683.16;5000949;28;19925;-80
2023/04/10 05:01:33;;;;;;;;;;;;;;;7.78;nan;102680.28;4995826;28;20448;-80
2023/04/10 05:03:58;;;;;;;;;;;;;;;7.80;nan;102686.28;4995752;28;20467;-80
2023/04/10 05:06:23;;;;;;;;;;;;;;;7.81;nan;102686.09;5002432;28;19962;-80
2023/04/10 05:08:49;;;;;;;;;;;;;;;7.83;nan;102685.91;4998386;28;20142;-80
2023/04/10 05:11:14;;;;;;;;;;;;;;;7.88;nan;102681.66;4999580;28;19926;-80
2023/04/10 05:13:40;;;;;;;;;;;;;;;7.92;nan;102687.50;4996266;28;19922;-80
2023/04/10 05:16:05;;;;;;;;;;;;;;;7.95;nan;102692.47;5000631;28;19921;-80
2023/04/10 05:18:31;;;;;;;;;;;;;;;7.96;nan;102694.13;4998132;28;21172;-80
2023/04/10 05:20:56;;;;;;;;;;;;;;;8.02;nan;102703.22;5002484;28;20268;-80
2023/04/10 05:23:22;;;;;;;;;;;;;;;8.07;nan;102693.66;4983765;28;19929;-80
2023/04/10 05:25:47;;;;;;;;;;;;;;;8.15;nan;102703.41;5003443;28;19944;-80
2023/04/10 05:28:13;;;;;;;;;;;;;;;8.23;nan;102695.31;4984579;28;19925;-80
2023/04/10 05:30:38;;;;;;;;;;;;;;;8.31;nan;102703.22;5001900;28;19917;-80
2023/04/10 05:33:03;;;;;;;;;;;;;;;8.37;nan;102696.34;5001159;28;20738;-80
2023/04/10 05:35:29;;;;;;;;;;;;;;;8.46;nan;102697.91;4998230;28;21303;-80
2023/04/10 05:37:54;;;;;;;;;;;;;;;8.58;nan;102688.38;4996197;28;19924;-80
2023/04/10 05:40:20;;;;;;;;;;;;;;;8.70;nan;102691.41;5001960;28;20260;-80
2023/04/10 05:42:45;;;;;;;;;;;;;;;8.82;nan;102686.41;4999155;28;19956;-80
2023/04/10 05:45:11;;;;;;;;;;;;;;;8.89;nan;102684.63;5000943;28;19935;-80
2023/04/10 05:47:36;;;;;;;;;;;;;;;8.98;nan;102688.84;4998216;28;19956;-80
2023/04/10 05:50:02;;;;;;;;;;;;;;;9.06;nan;102692.22;5000430;28;19947;-81
2023/04/10 05:52:27;;;;;;;;;;;;;;;9.15;nan;102692.91;5002751;28;19972;-81
2023/04/10 05:54:52;;;;;;;;;;;;;;;9.23;nan;102690.13;4984397;28;20403;-81
2023/04/10 05:57:18;;;;;;;;;;;;;;;9.31;nan;102689.97;4999088;28;19921;-81
2023/04/10 05:59:43;;;;;;;;;;;;;;;9.39;nan;102689.03;4984718;28;19937;-81
2023/04/10 06:02:08;;;;;;;;;;;;;;;9.48;nan;102700.41;5005088;28;20380;-81
2023/04/10 06:04:34;;;;;;;;;;;;;;;9.57;nan;102693.91;5003888;28;19917;-81
2023/04/10 06:07:00;;;;;;;;;;;;;;;9.68;nan;102688.00;5000060;28;19980;-81
2023/04/10 06:09:25;;;;;;;;;;;;;;;9.78;nan;102695.72;5004807;28;19925;-81
2023/04/10 06:11:52;;;;;;;;;;;;;;;9.87;nan;102684.63;5006466;28;20142;-81
2023/04/10 06:14:18;;;;;;;;;;;;;;;10.00;nan;102681.22;4988016;28;20319;-81
2023/04/10 06:16:43;;;;;;;;;;;;;;;10.12;nan;102687.69;5006915;28;19949;-81
2023/04/10 06:19:09;;;;;;;;;;;;;;;10.23;nan;102679.16;5003283;28;20030;-81
2023/04/10 06:21:34;;;;;;;;;;;;;;;10.34;nan;102690.31;5002904;28;19953;-81
2023/04/10 06:24:00;;;;;;;;;;;;;;;10.41;nan;102691.16;5006322;28;19921;-81
2023/04/10 06:26:25;;;;;;;;;;;;;;;10.47;nan;102698.41;5008928;28;19933;-81
2023/04/10 06:28:51;;;;;;;;;;;;;;;10.53;nan;102686.88;5009131;28;19923;-81
2023/04/10 06:31:18;;;;;;;;;;;;;;;10.62;nan;102680.31;5003952;28;19925;-81
2023/04/10 06:33:43;;;;;;;;;;;;;;;10.73;nan;102678.91;5004349;28;19979;-81
2023/04/10 06:36:11;;;;;;;;;;;;;;;10.89;nan;102678.53;5004982;28;21325;-81
2023/04/10 06:38:36;;;;;;;;;;;;;;;11.06;nan;102669.06;5004571;28;20024;-81
2023/04/10 06:41:02;;;;;;;;;;;;;;;11.20;nan;102665.38;5002886;28;20398;-81
2023/04/10 06:43:29;;;;;;;;;;;;;;;11.34;nan;102673.44;5003051;28;20264;-82
2023/04/10 06:45:54;;;;;;;;;;;;;;;11.48;nan;102680.44;4983995;28;20044;-81
2023/04/10 06:48:20;;;;;;;;;;;;;;;11.66;nan;102677.94;4986671;28;21568;-82
2023/04/10 06:50:45;;;;;;;;;;;;;;;11.75;nan;102675.91;5005404;28;19917;-81
2023/04/10 06:53:10;;;;;;;;;;;;;;;11.87;nan;102676.94;5005272;28;19925;-82
2023/04/10 06:55:36;;;;;;;;;;;;;;;12.00;nan;102682.28;5001588;28;19928;-82
2023/04/10 06:58:01;;;;;;;;;;;;;;;12.14;nan;102668.81;5000563;28;19928;-82
2023/04/10 07:00:27;;;;;;;;;;;;;;;12.20;nan;102660.72;4995692;28;19925;-81
2023/04/10 07:02:52;;;;;;;;;;;;;;;12.33;nan;102660.66;4987809;28;19944;-82
2023/04/10 07:05:18;;;;;;;;;;;;;;;12.46;nan;102659.78;5002168;28;20290;-82
2023/04/10 07:07:43;;;;;;;;;;;;;;;12.58;nan;102652.72;4976935;28;19964;-82
2023/04/10 07:10:09;;;;;;;;;;;;;;;12.72;nan;102658.81;5000540;28;20366;-81
2023/04/10 07:12:34;;;;;;;;;;;;;;;12.86;nan;102660.41;5007526;28;20302;-82
2023/04/10 07:14:59;;;;;;;;;;;;;;;13.00;nan;102661.97;5002694;28;19925;-82
2023/04/10 07:17:25;;;;;;;;;;;;;;;13.07;nan;102658.41;4993302;28;19922;-81
2023/04/10 07:19:50;;;;;;;;;;;;;;;13.15;nan;102653.59;5003532;28;20004;-82
2023/04/10 07:22:15;;;;;;;;;;;;;;;13.25;nan;102647.72;4984219;28;19922;-82
2023/04/10 07:24:41;;;;;;;;;;;;;;;13.38;nan;102650.31;4999494;28;19995;-81
2023/04/10 07:27:06;;;;;;;;;;;;;;;13.53;nan;102652.69;5000802;28;19925;-82
2023/04/10 07:29:32;;;;;;;;;;;;;;;13.66;nan;102649.88;4998607;28;19960;-82
2023/04/10 07:31:57;;;;;;;;;;;;;;;13.82;nan;102653.81;5004521;28;20032;-82
2023/04/10 07:34:22;;;;;;;;;;;;;;;13.96;nan;102647.25;5003463;28;20041;-83
2023/04/10 07:36:48;;;;;;;;;;;;;;;14.13;nan;102645.59;5004177;28;20004;-82
2023/04/10 07:39:13;;;;;;;;;;;;;;;14.20;nan;102646.38;4998992;28;19965;-82
2023/04/10 07:41:39;;;;;;;;;;;;;;;14.33;nan;102639.16;5003695;28;20429;-82
2023/04/10 07:44:04;;;;;;;;;;;;;;;14.41;nan;102636.16;5000983;28;19968;-81
2023/04/10 07:46:29;;;;;;;;;;;;;;;14.53;nan;102634.34;4993958;28;19925;-82
2023/04/10 07:48:55;;;;;;;;;;;;;;;14.70;nan;102631.81;5000388;28;19922;-82
2023/04/10 07:51:20;;;;;;;;;;;;;;;14.85;nan;102634.09;4995885;28;19925;-82
2023/04/10 07:53:46;;;;;;;;;;;;;;;14.98;nan;102634.72;4978850;28;19918;-82
2023/04/10 07:56:16;;;;;;;;;;;;;;;15.17;nan;102632.75;5000667;28;20369;-81
2023/04/10 07:58:41;;;;;;;;;;;;;;;15.33;nan;102636.66;4994926;28;19921;-82
2023/04/10 08:01:06;;;;;;;;;;;;;;;15.45;nan;102637.50;5009114;28;19925;-82
2023/04/10 08:03:36;;;;;;;;;;;;;;;15.61;nan;102638.69;4999805;28;19917;-82
2023/04/10 08:06:02;;;;;;;;;;;;;;;15.75;nan;102639.25;5002651;28;20022;-82
2023/04/10 08:08:27;;;;;;;;;;;;;;;15.90;nan;102640.41;4977318;28;20380;-81
2023/04/10 08:10:52;;;;;;;;;;;;;;;16.07;nan;102631.56;5007175;28;19940;-82
2023/04/10 08:13:18;;;;;;;;;;;;;;;16.25;nan;102632.22;5003916;28;19922;-82
2023/04/10 08:15:43;;;;;;;;;;;;;;;16.40;nan;102629.00;5004383;28;20436;-81
2023/04/10 08:18:09;;;;;;;;;;;;;;;16.50;nan;102620.25;5003261;28;19980;-82
2023/04/10 08:20:35;;;;;;;;;;;;;;;16.56;nan;102628.22;4999067;28;19921;-82
2023/04/10 08:23:01;;;;;;;;;;;;;;;16.58;nan;102626.09;5005315;28;19921;-82
2023/04/10 08:25:26;;;;;;;;;;;;;;;16.58;nan;102615.28;4997341;28;19921;-81
2023/04/10 08:27:52;;;;;;;;;;;;;;;16.70;nan;102611.72;5000580;28;19917;-83
2023/04/10 08:30:17;;;;;;;;;;;;;;;16.88;nan;102611.50;4996839;28;19974;-82
2023/04/10 08:32:42;;;;;;;;;;;;;;;17.06;nan;102605.03;4995722;28;20016;-81
2023/04/10 08:35:08;;;;;;;;;;;;;;;17.11;nan;102605.94;4989486;28;20395;-82
2023/04/10 08:37:33;;;;;;;;;;;;;;;17.24;nan;102614.78;4998264;28;19967;-82
2023/04/10 08:39:58;;;;;;;;;;;;;;;17.37;nan;102617.16;4998799;28;19925;-82
2023/04/10 08:42:25;;;;;;;;;;;;;;;17.48;nan;102608.94;4994298;28;19921;-82
2023/04/10 08:44:51;;;;;;;;;;;;;;;17.64;nan;102604.53;4999812;28;19932;-82
2023/04/10 08:47:20;;;;;;;;;;;;;;;17.83;nan;102610.53;4999016;28;19921;-82
2023/04/10 08:50:02;;;;;;;;;;;;;;;17.95;nan;102610.38;5000737;28;19917;-82
2023/04/10 08:52:28;;;;;;;;;;;;;;;18.15;nan;102609.84;4997676;28;19926;-82
2023/04/10 08:54:55;;;;;;;;;;;;;;;18.36;nan;102608.97;4999433;28;19931;-82
2023/04/10 08:57:21;;;;;;;;;;;;;;;18.51;nan;102605.59;4997181;28;19928;-83
2023/04/10 08:59:47;;;;;;;;;;;;;;;18.63;nan;102609.81;5001880;28;19921;-82
2023/04/10 09:02:12;;;;;;;;;;;;;;;18.76;nan;102597.72;4995020;28;19932;-82
2023/04/10 09:04:38;;;;;;;;;;;;;;;18.89;nan;102602.72;4996483;28;20315;-82
2023/04/10 09:07:03;;;;;;;;;;;;;;;18.96;nan;102595.19;5000959;28;19925;-82
2023/04/10 09:09:31;;;;;;;;;;;;;;;19.11;nan;102599.91;5000438;28;19931;-82
2023/04/10 09:12:02;;;;;;;;;;;;;;;19.31;nan;102588.38;5001294;28;20598;-82
2023/04/10 09:14:31;;;;;;;;;;;;;;;19.47;nan;102592.00;4998138;28;19926;-82
2023/04/10 09:17:26;;;;;;;;;;;;;;;19.61;nan;102598.66;4999607;28;19956;-83
2023/04/10 09:19:52;;;;;;;;;;;;;;;19.70;nan;102586.16;4986673;28;19921;-83
2023/04/10 09:22:27;;;;;;;;;;;;;;;19.83;nan;102585.69;4998812;28;19967;-82
2023/04/10 09:24:52;;;;;;;;;;;;;;;20.04;nan;102589.28;4976445;28;19926;-82
2023/04/10 09:27:28;;;;;;;;;;;;;;;20.15;nan;102576.56;4997644;28;19922;-82
2023/04/10 09:29:53;;;;;;;;;;;;;;;20.24;nan;102572.22;4994857;28;20476;-83
2023/04/10 09:32:37;;;;;;;;;;;;;;;20.41;nan;102563.84;4992831;28;20277;-83
2023/04/10 09:35:04;;;;;;;;;;;;;;;20.55;nan;102554.06;5004390;28;20024;-83
2023/04/10 09:37:33;;;;;;;;;;;;;;;20.76;nan;102552.16;5008307;28;19921;-83
2023/04/10 09:39:58;;;;;;;;;;;;;;;20.94;nan;102553.50;5007766;28;19917;-82
2023/04/10 09:42:34;;;;;;;;;;;;;;;21.05;nan;102552.41;5011921;28;20271;-82
2023/04/10 09:45:00;;;;;;;;;;;;;;;21.12;nan;102544.75;5009278;28;21432;-83
2023/04/10 09:47:26;;;;;;;;;;;;;;;21.26;nan;102536.84;5007979;28;19928;-83
2023/04/10 09:49:56;;;;;;;;;;;;;;;21.41;nan;102545.81;5008978;28;19917;-83
2023/04/10 09:52:28;;;;;;;;;;;;;;;21.58;nan;102528.31;5006720;28;20259;-83
2023/04/10 09:54:55;;;;;;;;;;;;;;;21.60;nan;102531.56;5012219;28;19925;-83
2023/04/10 09:57:21;;;;;;;;;;;;;;;21.65;nan;102521.44;5008065;28;20016;-83
2023/04/10 09:59:54;;;;;;;;;;;;;;;21.81;nan;102524.09;5008304;28;20145;-83
2023/04/10 10:02:20;;;;;;;;;;;;;;;21.94;nan;102510.66;5010370;28;20295;-83
2023/04/10 10:04:46;;;;;;;;;;;;;;;22.12;nan;102508.41;5008575;28;19925;-83
2023/04/10 10:07:16;;;;;;;;;;;;;;;22.19;nan;102508.88;5005836;28;20056;-84
2023/04/10 10:09:42;;;;;;;;;;;;;;;22.18;nan;102507.25;5008876;28;19940;-83
2023/04/10 10:12:08;;;;;;;;;;;;;;;22.23;nan;102507.22;5007691;28;20023;-83
2023/04/10 10:14:38;;;;;;;;;;;;;;;22.33;nan;102509.88;5008319;28;19932;-83
2023/04/10 10:17:06;;;;;;;;;;;;;;;22.39;nan;102497.81;5007337;28;19929;-83
2023/04/10 10:19:44;;;;;;;;;;;;;;;22.40;nan;102491.25;5009047;28;20007;-83
2023/04/10 10:22:10;;;;;;;;;;;;;;;22.42;nan;102480.03;5007653;28;19918;-82
2023/04/10 10:24:37;;;;;;;;;;;;;;;22.41;nan;102471.03;5008550;28;19921;-83
2023/04/10 10:27:03;;;;;;;;;;;;;;;22.47;nan;102483.56;5007835;28;20031;-84
2023/04/10 10:29:30;;;;;;;;;;;;;;;22.55;nan;102476.66;5008665;28;19921;-83
2023/04/10 10:31:58;;;;;;;;;;;;;;;22.59;nan;102472.22;5007820;28;19922;-83
2023/04/10 10:34:24;;;;;;;;;;;;;;;22.73;nan;102472.38;5008758;28;19921;-83
2023/04/10 10:36:49;;;;;;;;;;;;;;;22.87;nan;102473.38;5006455;28;19918;-83
2023/04/10 10:39:21;;;;;;;;;;;;;;;22.95;nan;102470.00;5008438;28;20008;-83
2023/04/10 10:41:55;;;;;;;;;;;;;;;23.10;nan;102467.09;5006774;28;19918;-84
2023/04/10 10:44:40;;;;;;;;;;;;;;;23.28;nan;102465.50;5005363;28;19917;-83
2023/04/10 10:47:14;;;;;;;;;;;;;;;23.30;nan;102462.47;5008941;28;19918;-84
2023/04/10 10:49:56;;;;;;;;;;;;;;;23.26;nan;102459.53;5007046;28;19948;-85
2023/04/10 10:52:41;;;;;;;;;;;;;;;23.30;nan;102455.09;5003497;28;20375;-83
2023/04/10 10:55:24;;;;;;;;;;;;;;;23.43;nan;102459.03;5008562;28;19937;-84
2023/04/10 10:58:00;;;;;;;;;;;;;;;23.55;nan;102451.22;5005809;28;19948;-83
2023/04/10 11:00:45;;;;;;;;;;;;;;;23.66;nan;102444.50;5005924;28;19924;-84
2023/04/10 11:03:14;;;;;;;;;;;;;;;23.78;nan;102433.94;5004782;28;19971;-83
2023/04/10 11:05:59;;;;;;;;;;;;;;;24.01;nan;102431.41;5007227;28;19921;-84
2023/04/10 11:08:44;;;;;;;;;;;;;;;23.94;nan;102425.50;5006494;28;19971;-83
2023/04/10 11:11:11;;;;;;;;;;;;;;;23.99;nan;102433.63;5006306;28;19922;-83
2023/04/10 11:13:37;;;;;;;;;;;;;;;24.04;nan;102428.88;5006680;28;20370;-84
2023/04/10 11:16:03;;;;;;;;;;;;;;;24.13;nan;102415.34;5007666;28;19925;-84
2023/04/10 11:18:43;;;;;;;;;;;;;;;24.19;nan;102416.88;5006630;28;19929;-84
2023/04/10 11:21:10;;;;;;;;;;;;;;;24.25;nan;102407.47;5007000;28;20593;-84
2023/04/10 11:23:36;;;;;;;;;;;;;;;24.42;nan;102404.19;5005667;28;20298;-85
2023/04/10 11:26:01;;;;;;;;;;;;;;;24.33;nan;102405.97;5008001;28;20260;-84
2023/04/10 11:28:37;;;;;;;;;;;;;;;24.26;nan;102400.88;4995658;28;20008;-84
2023/04/10 11:31:21;;;;;;;;;;;;;;;24.28;nan;102398.66;5003410;28;19929;-84
2023/04/10 11:33:48;;;;;;;;;;;;;;;24.43;nan;102385.81;5003367;28;20020;-84
2023/04/10 11:36:16;;;;;;;;;;;;;;;24.45;nan;102380.84;5005636;28;19929;-86
2023/04/10 11:38:52;;;;;;;;;;;;;;;24.54;nan;102377.09;4981014;28;19925;-84
2023/04/10 11:41:17;;;;;;;;;;;;;;;24.64;nan;102376.09;4988386;28;20544;-84
2023/04/10 11:43:42;;;;;;;;;;;;;;;24.61;nan;102379.44;5000193;28;19960;-84
2023/04/10 11:46:08;;;;;;;;;;;;;;;24.61;nan;102379.44;5004496;28;20294;-84
2023/04/10 11:48:35;;;;;;;;;;;;;;;24.64;nan;102374.16;5000121;28;19926;-84
2023/04/10 11:51:08;;;;;;;;;;;;;;;24.79;nan;102381.28;5000370;28;19964;-83
2023/04/10 11:53:34;;;;;;;;;;;;;;;24.68;nan;102379.84;5001923;28;19929;-86
2023/04/10 11:55:59;;;;;;;;;;;;;;;24.53;nan;102371.91;5002576;28;20215;-84
2023/04/10 11:58:25;;;;;;;;;;;;;;;24.37;nan;102369.47;5001640;28;19991;-83
2023/04/10 12:00:57;;;;;;;;;;;;;;;24.47;nan;102368.47;5000562;28;19928;-85
2023/04/10 12:03:35;;;;;;;;;;;;;;;24.52;nan;102368.38;5000193;28;19964;-84
2023/04/10 12:06:01;;;;;;;;;;;;;;;24.33;nan;102362.97;4997957;28;20415;-84
2023/04/10 12:08:30;;;;;;;;;;;;;;;24.40;nan;102360.63;5004617;28;19944;-85
2023/04/10 12:10:55;;;;;;;;;;;;;;;24.33;nan;102351.19;5001845;28;19921;-85
2023/04/10 12:13:27;;;;;;;;;;;;;;;24.33;nan;102346.53;5000844;28;20330;-84
2023/04/10 12:15:53;;;;;;;;;;;;;;;24.53;nan;102350.81;4999534;28;20012;-84
2023/04/10 12:18:22;;;;;;;;;;;;;;;24.67;nan;102345.34;5000569;28;20036;-84
2023/04/10 12:20:47;;;;;;;;;;;;;;;24.74;nan;102342.19;4999892;28;19925;-84
2023/04/10 12:23:13;;;;;;;;;;;;;;;24.74;nan;102343.00;5004577;28;19975;-85
2023/04/10 12:25:39;;;;;;;;;;;;;;;24.73;nan;102349.59;5004207;28;19926;-84
2023/04/10 12:28:04;;;;;;;;;;;;;;;24.63;nan;102344.34;5002528;28;19925;-85
2023/04/10 12:30:29;;;;;;;;;;;;;;;24.48;nan;102331.75;5003896;28;20024;-84
2023/04/10 12:32:55;;;;;;;;;;;;;;;24.50;nan;102328.69;5002106;28;19925;-85
2023/04/10 12:35:36;;;;;;;;;;;;;;;24.51;nan;102327.56;5004640;28;19928;-85
2023/04/10 12:38:01;;;;;;;;;;;;;;;24.55;nan;102314.88;5000870;28;19926;-84
2023/04/10 12:40:26;;;;;;;;;;;;;;;24.71;nan;102318.94;5003155;28;19923;-84
2023/04/10 12:42:52;;;;;;;;;;;;;;;24.87;nan;102316.69;4998262;28;19917;-85
2023/04/10 12:45:17;;;;;;;;;;;;;;;24.90;nan;102299.63;5003599;28;19925;-85
2023/04/10 12:47:45;;;;;;;;;;;;;;;24.90;nan;102300.44;5002677;28;19964;-85
2023/04/10 12:50:12;;;;;;;;;;;;;;;24.98;nan;102299.72;5001478;28;20016;-85
2023/04/10 12:52:42;;;;;;;;;;;;;;;25.08;nan;102292.41;5002293;28;19964;-84
2023/04/10 12:55:09;;;;;;;;;;;;;;;25.17;nan;102293.31;5002175;28;20310;-84
2023/04/10 12:57:35;;;;;;;;;;;;;;;25.19;nan;102285.56;5003442;28;19925;-85
2023/04/10 13:00:02;;;;;;;;;;;;;;;25.18;nan;102289.44;5001591;28;19964;-84